createdAt,value
2022-09-09T00:01:32.304Z,1.85
2022-09-09T00:03:42.147Z,1.98
2022-09-09T00:05:53.639Z,2.28
2022-09-09T00:08:00.144Z,2.25
2022-09-09T00:10:15.669Z,2.00
2022-09-09T00:12:27.015Z,2.17
2022-09-09T00:14:46.727Z,1.95
2022-09-09T00:16:54.489Z,2.10
2022-09-09T00:19:04.031Z,2.15
2022-09-09T00:21:09.908Z,2.10
2022-09-09T00:23:16.235Z,2.00
2022-09-09T00:25:25.226Z,2.08
2022-09-09T00:27:32.758Z,1.65
2022-09-09T00:29:43.523Z,2.00
2022-09-09T00:31:47.522Z,2.00
2022-09-09T00:33:53.239Z,1.90
2022-09-09T00:35:59.583Z,2.20
2022-09-09T00:38:07.115Z,1.80
2022-09-09T00:40:24.904Z,1.85
2022-09-09T00:42:32.255Z,2.05
2022-09-09T00:44:39.247Z,1.70
2022-09-09T00:47:08.923Z,2.00
2022-09-09T00:49:22.542Z,1.90
2022-09-09T00:51:35.888Z,1.30
2022-09-09T00:53:43.590Z,1.48
2022-09-09T00:55:50.708Z,1.80
2022-09-09T00:57:54.912Z,1.92
2022-09-09T01:00:19.380Z,2.10
2022-09-09T01:02:30.542Z,1.63
2022-09-09T01:04:38.423Z,1.80
2022-09-09T01:06:41.697Z,1.90
2022-09-09T01:09:08.053Z,2.05
2022-09-09T01:11:18.600Z,2.65
2022-09-09T01:13:26.639Z,2.00
2022-09-09T01:15:33.831Z,1.90
2022-09-09T01:17:42.033Z,2.08
2022-09-09T01:19:58.284Z,2.08
2022-09-09T01:22:08.436Z,2.00
2022-09-09T01:24:22.532Z,1.80
2022-09-09T01:26:29.921Z,2.58
2022-09-09T01:28:36.328Z,2.17
2022-09-09T01:30:42.624Z,2.28
2022-09-09T01:32:46.943Z,1.88
2022-09-09T01:34:49.909Z,1.85
2022-09-09T01:36:59.235Z,2.20
2022-09-09T01:39:02.041Z,2.47
2022-09-09T01:41:05.300Z,2.30
2022-09-09T01:43:09.379Z,3.00
2022-09-09T01:45:12.239Z,2.50
2022-09-09T01:47:16.376Z,2.40
2022-09-09T01:49:19.756Z,2.40
2022-09-09T01:51:22.018Z,2.10
2022-09-09T01:53:24.970Z,2.47
2022-09-09T01:55:32.819Z,2.40
2022-09-09T01:57:41.415Z,2.20
2022-09-09T02:00:07.541Z,2.83
2022-09-09T02:02:13.314Z,2.22
2022-09-09T02:04:32.103Z,2.50
2022-09-09T02:06:38.491Z,2.57
2022-09-09T02:08:47.360Z,2.40
2022-09-09T02:10:58.342Z,2.40
2022-09-09T02:13:06.205Z,2.03
2022-09-09T02:15:21.279Z,2.33
2022-09-09T02:17:29.017Z,2.40
2022-09-09T02:19:37.211Z,2.10
2022-09-09T02:21:41.864Z,1.97
2022-09-09T02:23:47.892Z,2.40
2022-09-09T02:25:52.755Z,2.35
2022-09-09T02:27:55.912Z,2.10
2022-09-09T02:30:01.353Z,1.92
2022-09-09T02:32:09.486Z,2.47
2022-09-09T02:34:14.068Z,2.38
2022-09-09T02:36:18.236Z,2.17
2022-09-09T02:38:22.671Z,1.75
2022-09-09T02:40:25.491Z,2.17
2022-09-09T02:42:28.268Z,2.20
2022-09-09T02:44:30.980Z,2.15
2022-09-09T02:46:47.715Z,2.03
2022-09-09T02:49:01.650Z,2.63
2022-09-09T02:51:13.194Z,2.33
2022-09-09T02:53:21.625Z,2.55
2022-09-09T02:55:30.818Z,2.40
2022-09-09T02:57:34.986Z,2.15
2022-09-09T02:59:37.860Z,2.30
2022-09-09T03:01:41.323Z,2.10
2022-09-09T03:03:45.104Z,1.90
2022-09-09T03:05:49.225Z,2.20
2022-09-09T03:07:51.948Z,2.05
2022-09-09T03:09:55.786Z,2.08
2022-09-09T03:11:58.575Z,1.73
2022-09-09T03:14:01.270Z,1.88
2022-09-09T03:16:04.805Z,2.25
2022-09-09T03:18:07.573Z,1.83
2022-09-09T03:20:11.186Z,2.25
2022-09-09T03:22:15.559Z,2.10
2022-09-09T03:24:18.441Z,2.03
2022-09-09T03:26:21.163Z,2.28
2022-09-09T03:28:24.096Z,2.00
2022-09-09T03:30:28.634Z,1.80
2022-09-09T03:32:32.227Z,1.92
2022-09-09T03:34:34.944Z,2.03
2022-09-09T03:36:38.365Z,2.00
2022-09-09T03:38:42.506Z,1.97
2022-09-09T03:40:52.045Z,2.13
2022-09-09T03:42:54.838Z,1.70
2022-09-09T03:44:59.013Z,1.58
2022-09-09T03:47:01.853Z,2.15
2022-09-09T03:49:05.164Z,2.03
2022-09-09T03:51:07.847Z,2.00
2022-09-09T03:53:10.721Z,1.92
2022-09-09T03:55:14.779Z,1.80
2022-09-09T03:57:17.892Z,1.98
2022-09-09T03:59:22.136Z,2.00
2022-09-09T04:01:24.957Z,1.88
2022-09-09T04:03:28.737Z,1.92
2022-09-09T04:05:31.880Z,2.10
2022-09-09T04:07:34.551Z,1.77
2022-09-09T04:09:37.225Z,2.00
2022-09-09T04:11:41.239Z,2.00
2022-09-09T04:13:45.337Z,1.65
2022-09-09T04:15:53.332Z,1.80
2022-09-09T04:17:56.295Z,1.45
2022-09-09T04:19:59.301Z,2.05
2022-09-09T04:22:02.485Z,1.60
2022-09-09T04:24:05.460Z,1.67
2022-09-09T04:26:09.767Z,1.60
2022-09-09T04:28:13.896Z,1.60
2022-09-09T04:30:17.372Z,1.77
2022-09-09T04:32:20.104Z,1.85
2022-09-09T04:34:22.892Z,1.40
2022-09-09T04:36:25.591Z,1.52
2022-09-09T04:38:28.350Z,1.50
2022-09-09T04:40:31.323Z,1.50
2022-09-09T04:42:37.688Z,1.70
2022-09-09T04:44:41.716Z,1.73
2022-09-09T04:46:44.682Z,1.70
2022-09-09T04:48:48.140Z,1.88
2022-09-09T04:50:58.260Z,1.88
2022-09-09T04:53:02.780Z,2.00
2022-09-09T04:55:06.737Z,2.10
2022-09-09T04:57:09.424Z,1.90
2022-09-09T04:59:12.363Z,2.13
2022-09-09T05:01:18.550Z,2.17
2022-09-09T05:03:21.438Z,1.73
2022-09-09T05:05:24.292Z,1.85
2022-09-09T05:07:29.868Z,1.88
2022-09-09T05:09:32.544Z,1.50
2022-09-09T05:11:37.578Z,1.58
2022-09-09T05:13:41.627Z,1.70
2022-09-09T05:15:53.005Z,1.70
2022-09-09T05:18:02.359Z,1.50
2022-09-09T05:20:09.837Z,1.55
2022-09-09T05:22:13.759Z,1.60
2022-09-09T05:24:16.641Z,1.55
2022-09-09T05:26:21.922Z,1.55
2022-09-09T05:28:26.447Z,1.65
2022-09-09T05:30:29.523Z,1.73
2022-09-09T05:32:34.993Z,1.55
2022-09-09T05:34:39.863Z,1.70
2022-09-09T05:36:42.638Z,1.40
2022-09-09T05:38:46.197Z,1.35
2022-09-09T05:40:51.073Z,1.38
2022-09-09T05:42:54.425Z,1.90
2022-09-09T05:44:57.276Z,1.30
2022-09-09T05:47:00.061Z,1.48
2022-09-09T05:49:06.580Z,1.83
2022-09-09T05:51:13.431Z,2.20
2022-09-09T05:53:16.585Z,1.58
2022-09-09T05:55:19.508Z,1.35
2022-09-09T05:57:22.327Z,2.08
2022-09-09T05:59:25.111Z,1.98
2022-09-09T06:01:29.854Z,1.70
2022-09-09T06:03:32.732Z,1.60
2022-09-09T06:05:36.375Z,1.98
2022-09-09T06:07:42.898Z,2.00
2022-09-09T06:09:45.763Z,1.70
2022-09-09T06:11:48.611Z,1.95
2022-09-09T06:13:54.350Z,1.85
2022-09-09T06:15:57.994Z,1.70
2022-09-09T06:18:00.695Z,1.70
2022-09-09T06:20:04.036Z,1.88
2022-09-09T06:22:06.718Z,1.77
2022-09-09T06:24:11.214Z,1.77
2022-09-09T06:26:16.935Z,1.80
2022-09-09T06:28:19.943Z,1.80
2022-09-09T06:30:22.848Z,1.55
2022-09-09T06:32:26.305Z,1.85
2022-09-09T06:34:29.370Z,2.03
2022-09-09T06:36:33.748Z,2.10
2022-09-09T06:38:36.721Z,1.85
2022-09-09T06:40:40.834Z,1.92
2022-09-09T06:42:43.540Z,2.10
2022-09-09T06:44:46.332Z,1.98
2022-09-09T06:46:49.258Z,1.80
2022-09-09T06:48:52.019Z,1.92
2022-09-09T06:51:03.019Z,2.47
2022-09-09T06:53:05.699Z,2.45
2022-09-09T06:55:09.265Z,2.50
2022-09-09T06:57:35.904Z,2.30
2022-09-09T06:59:36.651Z,2.38
2022-09-09T07:01:41.599Z,2.53
2022-09-09T07:03:48.003Z,2.55
2022-09-09T07:05:57.059Z,2.70
2022-09-09T07:07:59.950Z,2.65
2022-09-09T07:10:02.657Z,3.10
2022-09-09T07:12:07.128Z,2.70
2022-09-09T07:14:13.723Z,2.70
2022-09-09T07:16:18.806Z,2.65
2022-09-09T07:18:22.220Z,2.78
2022-09-09T07:20:24.959Z,2.83
2022-09-09T07:22:29.569Z,3.13
2022-09-09T07:24:32.603Z,2.80
2022-09-09T07:26:36.364Z,2.83
2022-09-09T07:28:39.988Z,2.67
2022-09-09T07:30:44.456Z,2.83
2022-09-09T07:32:47.350Z,2.92
2022-09-09T07:34:51.117Z,2.67
2022-09-09T07:36:54.030Z,2.60
2022-09-09T07:38:59.400Z,2.72
2022-09-09T07:41:08.947Z,3.22
2022-09-09T07:43:16.720Z,2.55
2022-09-09T07:45:20.001Z,2.20
2022-09-09T07:47:25.657Z,2.83
2022-09-09T07:49:32.613Z,2.30
2022-09-09T07:51:38.234Z,2.70
2022-09-09T07:53:41.187Z,2.60
2022-09-09T07:55:44.161Z,2.75
2022-09-09T07:57:46.874Z,2.60
2022-09-09T07:59:49.678Z,2.67
2022-09-09T08:01:55.169Z,2.13
2022-09-09T08:04:01.969Z,2.03
2022-09-09T08:06:05.748Z,2.20
2022-09-09T08:08:09.932Z,2.17
2022-09-09T08:10:12.677Z,2.05
2022-09-09T08:12:15.746Z,2.20
2022-09-09T08:14:18.788Z,2.47
2022-09-09T08:16:23.821Z,2.40
2022-09-09T08:18:28.737Z,2.10
2022-09-09T08:20:33.032Z,2.10
2022-09-09T08:22:37.296Z,2.17
2022-09-09T08:24:40.213Z,2.28
2022-09-09T08:26:45.534Z,2.22
2022-09-09T08:28:48.226Z,2.05
2022-09-09T08:30:52.115Z,1.95
2022-09-09T08:32:55.484Z,1.92
2022-09-09T08:35:01.208Z,2.35
2022-09-09T08:37:05.726Z,1.85
2022-09-09T08:39:09.819Z,2.10
2022-09-09T08:41:35.141Z,2.10
2022-09-09T08:43:38.153Z,2.30
2022-09-09T08:45:57.170Z,1.88
2022-09-09T08:48:23.194Z,2.10
2022-09-09T08:50:29.120Z,1.88
2022-09-09T08:52:40.087Z,1.83
2022-09-09T08:54:52.274Z,2.60
2022-09-09T08:56:57.074Z,2.40
2022-09-09T08:59:03.697Z,2.28
2022-09-09T09:01:24.902Z,1.88
2022-09-09T09:03:35.373Z,2.38
2022-09-09T09:05:43.468Z,2.20
2022-09-09T09:07:57.158Z,1.92
2022-09-09T09:10:18.896Z,1.85
2022-09-09T09:12:31.639Z,2.30
2022-09-09T09:14:37.433Z,2.10
2022-09-09T09:16:50.043Z,2.08
2022-09-09T09:18:53.893Z,2.25
2022-09-09T09:21:05.971Z,2.40
2022-09-09T09:23:19.500Z,1.80
2022-09-09T09:25:25.055Z,2.28
2022-09-09T09:27:33.800Z,1.95
2022-09-09T09:29:56.463Z,1.95
2022-09-09T09:32:03.468Z,2.20
2022-09-09T09:34:06.503Z,2.33
2022-09-09T09:36:09.636Z,2.45
2022-09-09T09:40:51.748Z,2.65
2022-09-09T09:42:56.915Z,2.65
2022-09-09T09:45:11.133Z,2.20
2022-09-09T09:47:15.802Z,2.20
2022-09-09T09:49:19.145Z,2.35
2022-09-09T09:51:24.262Z,2.60
2022-09-09T09:53:30.442Z,2.50
2022-09-09T09:55:37.936Z,2.72
2022-09-09T09:57:41.028Z,2.10
2022-09-09T09:59:44.966Z,2.60
2022-09-09T10:01:48.138Z,2.50
2022-09-09T10:03:54.162Z,2.30
2022-09-09T10:05:57.787Z,2.47
2022-09-09T10:08:12.449Z,2.40
2022-09-09T10:10:22.644Z,2.15
2022-09-09T10:12:35.661Z,1.60
2022-09-09T10:14:43.817Z,1.42
2022-09-09T10:16:59.536Z,1.17
2022-09-09T10:19:05.858Z,1.42
2022-09-09T10:21:18.995Z,1.05
2022-09-09T10:23:33.612Z,1.00
2022-09-09T10:25:56.242Z,1.25
2022-09-09T10:28:23.859Z,1.00
2022-09-09T10:30:35.485Z,1.23
2022-09-09T10:32:43.820Z,1.42
2022-09-09T10:34:58.358Z,1.35
2022-09-09T10:37:02.013Z,1.27
2022-09-09T10:39:07.327Z,1.52
2022-09-09T10:41:18.485Z,1.70
2022-09-09T10:43:35.637Z,2.38
2022-09-09T10:45:49.304Z,1.65
2022-09-09T10:48:09.436Z,2.03
2022-09-09T10:50:57.147Z,1.90
2022-09-09T10:53:04.264Z,2.17
2022-09-09T10:55:12.669Z,1.90
2022-09-09T10:57:24.631Z,2.28
2022-09-09T10:59:31.259Z,1.95
2022-09-09T11:01:39.729Z,2.00
2022-09-09T11:03:43.304Z,1.80
2022-09-09T11:05:48.447Z,1.73
2022-09-09T11:07:57.012Z,1.70
2022-09-09T11:10:04.705Z,1.35
2022-09-09T11:12:13.516Z,1.88
2022-09-09T11:14:25.750Z,1.70
2022-09-09T11:16:32.795Z,1.42
2022-09-09T11:18:40.848Z,1.90
2022-09-09T11:20:45.379Z,1.50
2022-09-09T11:22:54.707Z,1.63
2022-09-09T11:25:03.357Z,2.13
2022-09-09T11:27:17.234Z,1.55
2022-09-09T11:29:40.724Z,1.75
2022-09-09T11:31:56.783Z,2.10
2022-09-09T11:34:15.326Z,1.90
2022-09-09T11:36:40.588Z,1.67
2022-09-09T11:38:47.902Z,1.83
2022-09-09T11:41:00.401Z,1.88
2022-09-09T11:43:06.822Z,1.90
2022-09-09T11:45:29.461Z,1.63
2022-09-09T11:47:33.271Z,1.70
2022-09-09T11:49:43.536Z,1.63
2022-09-09T11:51:46.398Z,1.70
2022-09-09T11:53:52.252Z,1.90
2022-09-09T11:56:11.752Z,1.80
2022-09-09T11:58:19.456Z,1.70
2022-09-09T12:00:39.090Z,1.55
2022-09-09T12:02:51.728Z,1.70
2022-09-09T12:05:02.550Z,2.15
2022-09-09T12:07:23.775Z,1.90
2022-09-09T12:09:35.783Z,1.95
2022-09-09T12:11:39.329Z,1.60
2022-09-09T12:13:42.861Z,1.77
2022-09-09T12:15:52.978Z,1.95
2022-09-09T12:18:02.666Z,1.67
2022-09-09T12:20:15.517Z,1.80
2022-09-09T12:22:28.391Z,2.03
2022-09-09T12:24:37.495Z,1.90
2022-09-09T12:26:46.499Z,1.70
2022-09-09T12:28:58.082Z,1.70
2022-09-09T12:31:08.671Z,1.50
2022-09-09T12:33:14.809Z,1.65
2022-09-09T12:35:23.250Z,1.58
2022-09-09T12:37:31.745Z,1.58
2022-09-09T12:39:40.200Z,1.65
2022-09-09T12:41:42.963Z,1.35
2022-09-09T12:43:45.693Z,1.83
2022-09-09T12:45:50.818Z,1.50
2022-09-09T12:47:59.277Z,1.95
2022-09-09T12:50:02.206Z,1.73
2022-09-09T12:52:08.799Z,1.40
2022-09-09T12:54:16.552Z,1.60
2022-09-09T12:56:24.047Z,1.23
2022-09-09T12:58:29.255Z,1.40
2022-09-09T13:00:32.197Z,1.23
2022-09-09T13:02:35.211Z,1.20
2022-09-09T13:04:39.404Z,1.33
2022-09-09T13:06:42.102Z,1.30
2022-09-09T13:08:45.483Z,1.35
2022-09-09T13:10:56.344Z,1.63
2022-09-09T13:13:02.507Z,1.52
2022-09-09T13:15:06.077Z,1.45
2022-09-09T13:17:19.452Z,1.48
2022-09-09T13:19:22.672Z,1.40
2022-09-09T13:21:36.632Z,1.42
2022-09-09T13:23:40.311Z,1.70
2022-09-09T13:25:44.745Z,1.00
2022-09-09T13:27:55.508Z,1.42
2022-09-09T13:29:58.672Z,1.00
2022-09-09T13:32:07.121Z,0.90
2022-09-09T13:34:17.585Z,0.90
2022-09-09T13:36:31.944Z,0.80
2022-09-09T13:38:39.348Z,0.80
2022-09-09T13:40:42.348Z,0.70
2022-09-09T13:42:46.961Z,1.00
2022-09-09T13:44:50.020Z,0.90
2022-09-09T13:47:07.998Z,1.25
2022-09-09T13:49:23.563Z,0.88
2022-09-09T13:51:36.022Z,0.82
2022-09-09T13:53:40.385Z,1.20
2022-09-09T13:55:43.257Z,1.20
2022-09-09T13:57:53.675Z,0.93
2022-09-09T14:00:05.818Z,1.10
2022-09-09T14:02:09.851Z,1.00
2022-09-09T14:04:12.919Z,0.95
2022-09-09T14:06:15.748Z,0.93
2022-09-09T14:08:24.719Z,0.85
2022-09-09T14:10:29.203Z,0.70
2022-09-09T14:12:32.110Z,1.38
2022-09-09T14:14:34.965Z,1.17
2022-09-09T14:16:38.506Z,1.40
2022-09-09T14:18:41.629Z,0.98
2022-09-09T14:20:44.470Z,1.42
2022-09-09T14:22:47.401Z,1.08
2022-09-09T14:24:50.519Z,1.10
2022-09-09T14:26:54.754Z,1.23
2022-09-09T14:28:58.106Z,1.38
2022-09-09T14:31:02.627Z,1.02
2022-09-09T14:33:05.454Z,1.42
2022-09-09T14:35:09.296Z,1.10
2022-09-09T14:37:12.007Z,1.35
2022-09-09T14:39:15.004Z,1.25
2022-09-09T14:41:19.590Z,1.38
2022-09-09T14:43:24.127Z,1.13
2022-09-09T14:45:27.349Z,0.90
2022-09-09T14:47:31.217Z,1.02
2022-09-09T14:49:34.367Z,1.20
2022-09-09T14:51:37.120Z,1.10
2022-09-09T14:53:40.026Z,0.70
2022-09-09T14:55:43.202Z,0.88
2022-09-09T14:57:46.359Z,0.82
2022-09-09T14:59:51.217Z,0.93
2022-09-09T15:01:54.236Z,1.10
2022-09-09T15:03:58.906Z,0.90
2022-09-09T15:06:07.400Z,0.90
2022-09-09T15:08:10.420Z,0.77
2022-09-09T15:10:13.517Z,0.80
2022-09-09T15:12:16.656Z,0.65
2022-09-09T15:14:22.612Z,1.27
2022-09-09T15:16:30.537Z,1.20
2022-09-09T15:18:33.977Z,1.15
2022-09-09T15:20:40.293Z,1.13
2022-09-09T15:22:43.772Z,1.42
2022-09-09T15:24:46.438Z,1.17
2022-09-09T15:26:49.188Z,1.10
2022-09-09T15:28:52.360Z,1.20
2022-09-09T15:30:57.600Z,1.23
2022-09-09T15:33:01.969Z,1.20
2022-09-09T15:35:05.049Z,1.05
2022-09-09T15:37:08.661Z,1.13
2022-09-09T15:39:14.031Z,1.30
2022-09-09T15:41:18.810Z,1.15
2022-09-09T15:43:21.640Z,1.17
2022-09-09T15:45:24.362Z,0.80
2022-09-09T15:47:28.516Z,1.05
2022-09-09T15:49:32.848Z,1.05
2022-09-09T15:51:42.710Z,1.30
2022-09-09T15:53:46.326Z,0.95
2022-09-09T15:55:51.297Z,1.30
2022-09-09T15:57:58.669Z,1.20
2022-09-09T16:00:01.473Z,1.13
2022-09-09T16:02:04.739Z,0.95
2022-09-09T16:04:08.409Z,1.15
2022-09-09T16:06:13.110Z,0.95
2022-09-09T16:08:15.941Z,1.15
2022-09-09T16:10:19.137Z,1.10
2022-09-09T16:12:22.261Z,1.08
2022-09-09T16:14:26.347Z,1.20
2022-09-09T16:16:31.950Z,1.48
2022-09-09T16:18:38.805Z,1.00
2022-09-09T16:20:42.024Z,1.33
2022-09-09T16:22:46.197Z,1.33
2022-09-09T16:24:48.945Z,1.30
2022-09-09T16:26:55.113Z,1.00
2022-09-09T16:28:59.736Z,1.10
2022-09-09T16:31:06.261Z,1.10
2022-09-09T16:33:09.015Z,1.27
2022-09-09T16:35:12.503Z,1.08
2022-09-09T16:37:15.271Z,1.23
2022-09-09T16:39:22.545Z,1.02
2022-09-09T16:41:26.509Z,1.00
2022-09-09T16:43:29.738Z,1.30
2022-09-09T16:45:33.268Z,1.20
2022-09-09T16:47:36.597Z,1.40
2022-09-09T16:49:39.489Z,1.58
2022-09-09T16:51:43.887Z,1.10
2022-09-09T16:53:47.442Z,1.35
2022-09-09T16:55:51.600Z,1.63
2022-09-09T16:57:54.876Z,1.20
2022-09-09T17:00:00.169Z,1.10
2022-09-09T17:02:05.910Z,1.10
2022-09-09T17:04:11.655Z,1.40
2022-09-09T17:06:16.286Z,1.17
2022-09-09T17:08:19.100Z,1.10
2022-09-09T17:10:22.303Z,1.23
2022-09-09T17:12:27.359Z,1.52
2022-09-09T17:14:31.993Z,1.20
2022-09-09T17:16:36.186Z,1.20
2022-09-09T17:18:39.449Z,1.10
2022-09-09T17:20:46.996Z,1.38
2022-09-09T17:22:50.799Z,1.27
2022-09-09T17:24:53.707Z,1.65
2022-09-09T17:26:56.795Z,1.33
2022-09-09T17:29:02.361Z,1.17
2022-09-09T17:31:07.046Z,1.55
2022-09-09T17:33:10.003Z,1.20
2022-09-09T17:35:12.794Z,1.48
2022-09-09T17:37:15.487Z,1.25
2022-09-09T17:39:18.248Z,1.50
2022-09-09T17:41:23.691Z,1.20
2022-09-09T17:43:26.415Z,1.55
2022-09-09T17:45:33.179Z,1.50
2022-09-09T17:47:35.931Z,1.20
2022-09-09T17:49:38.890Z,1.40
2022-09-09T17:51:43.321Z,1.30
2022-09-09T17:53:51.235Z,1.30
2022-09-09T17:55:54.178Z,1.20
2022-09-09T17:57:57.127Z,1.20
2022-09-09T17:59:59.853Z,1.80
2022-09-09T18:02:05.419Z,1.38
2022-09-09T18:04:10.670Z,1.67
2022-09-09T18:06:16.104Z,1.10
2022-09-09T18:08:19.389Z,1.55
2022-09-09T18:10:22.320Z,1.13
2022-09-09T18:12:25.393Z,1.40
2022-09-09T18:14:31.116Z,1.35
2022-09-09T18:16:35.905Z,1.42
2022-09-09T18:18:40.064Z,1.30
2022-09-09T18:20:43.276Z,1.42
2022-09-09T18:22:45.989Z,1.27
2022-09-09T18:24:50.142Z,1.25
2022-09-09T18:26:53.314Z,1.02
2022-09-09T18:28:59.240Z,1.10
2022-09-09T18:31:05.237Z,1.15
2022-09-09T18:33:08.067Z,1.05
2022-09-09T18:35:12.544Z,1.00
2022-09-09T18:37:15.284Z,1.25
2022-09-09T18:39:19.642Z,1.10
2022-09-09T18:41:24.228Z,1.00
2022-09-09T18:43:27.031Z,1.17
2022-09-09T18:45:29.915Z,1.13
2022-09-09T18:47:32.726Z,1.13
2022-09-09T18:49:35.429Z,0.80
2022-09-09T18:51:42.768Z,1.27
2022-09-09T18:53:51.099Z,1.08
2022-09-09T18:56:00.046Z,0.80
2022-09-09T18:58:03.576Z,0.82
2022-09-09T19:00:09.552Z,1.20
2022-09-09T19:02:12.618Z,0.93
2022-09-09T19:04:15.876Z,1.00
2022-09-09T19:06:21.864Z,1.10
2022-09-09T19:08:25.933Z,1.02
2022-09-09T19:10:30.557Z,1.10
2022-09-09T19:12:33.440Z,1.20
2022-09-09T19:14:36.144Z,1.13
2022-09-09T19:16:40.376Z,1.08
2022-09-09T19:18:44.738Z,1.20
2022-09-09T19:20:47.870Z,1.10
2022-09-09T19:22:50.605Z,1.17
2022-09-09T19:24:55.796Z,1.05
2022-09-09T19:27:01.550Z,1.15
2022-09-09T19:29:04.374Z,1.08
2022-09-09T19:31:08.545Z,0.90
2022-09-09T19:33:11.439Z,1.00
2022-09-09T19:35:14.208Z,0.85
2022-09-09T19:37:18.528Z,1.15
2022-09-09T19:39:21.702Z,1.08
2022-09-09T19:41:28.998Z,0.88
2022-09-09T19:43:32.357Z,0.75
2022-09-09T19:45:35.545Z,1.13
2022-09-09T19:47:39.088Z,1.10
2022-09-09T19:49:46.189Z,1.17
2022-09-09T19:51:50.140Z,1.10
2022-09-09T19:53:55.986Z,1.10
2022-09-09T19:56:00.007Z,1.20
2022-09-09T19:58:04.149Z,1.05
2022-09-09T20:00:09.091Z,1.15
2022-09-09T20:02:15.758Z,1.17
2022-09-09T20:04:18.919Z,1.23
2022-09-09T20:06:24.607Z,1.15
2022-09-09T20:08:28.423Z,1.23
2022-09-09T20:10:31.908Z,1.30
2022-09-09T20:12:34.910Z,1.40
2022-09-09T20:14:40.015Z,1.08
2022-09-09T20:16:48.576Z,1.42
2022-09-09T20:18:54.103Z,1.40
2022-09-09T20:20:59.683Z,1.30
2022-09-09T20:23:03.031Z,1.30
2022-09-09T20:25:06.604Z,1.00
2022-09-09T20:27:09.356Z,1.10
2022-09-09T20:29:16.203Z,0.80
2022-09-09T20:31:22.190Z,1.10
2022-09-09T20:33:25.346Z,0.90
2022-09-09T20:35:31.094Z,1.17
2022-09-09T20:37:33.845Z,1.15
2022-09-09T20:39:37.160Z,0.88
2022-09-09T20:41:42.060Z,1.02
2022-09-09T20:43:48.785Z,0.80
2022-09-09T20:45:53.733Z,1.15
2022-09-09T20:47:57.844Z,0.88
2022-09-09T20:50:00.736Z,1.15
2022-09-09T20:52:04.345Z,1.00
2022-09-09T20:54:09.461Z,0.80
2022-09-09T20:56:13.093Z,1.10
2022-09-09T20:58:15.868Z,1.20
2022-09-09T21:00:18.779Z,1.35
2022-09-09T21:02:21.798Z,1.02
2022-09-09T21:04:27.763Z,1.10
2022-09-09T21:06:31.159Z,1.20
2022-09-09T21:08:34.886Z,1.00
2022-09-09T21:10:41.034Z,1.05
2022-09-09T21:12:46.127Z,1.35
2022-09-09T21:14:49.405Z,0.98
2022-09-09T21:16:52.179Z,1.17
2022-09-09T21:18:55.015Z,1.10
2022-09-09T21:20:59.652Z,1.08
2022-09-09T21:23:02.431Z,0.98
2022-09-09T21:25:06.012Z,1.00
2022-09-09T21:27:08.996Z,1.20
2022-09-09T21:29:13.231Z,1.15
2022-09-09T21:31:18.520Z,1.10
2022-09-09T21:33:23.173Z,1.08
2022-09-09T21:35:26.197Z,1.00
2022-09-09T21:37:30.205Z,1.00
2022-09-09T21:39:33.002Z,1.00
2022-09-09T21:41:36.122Z,1.02
2022-09-09T21:43:39.228Z,0.80
2022-09-09T21:45:43.278Z,1.20
2022-09-09T21:47:48.330Z,0.98
2022-09-09T21:49:51.867Z,1.40
2022-09-09T21:51:55.144Z,1.10
2022-09-09T21:53:59.368Z,1.15
2022-09-09T21:56:03.523Z,1.20
2022-09-09T21:58:06.307Z,1.20
2022-09-09T22:00:12.489Z,1.00
2022-09-09T22:02:16.551Z,1.00
2022-09-09T22:04:19.472Z,1.07
2022-09-09T22:06:22.329Z,1.20
2022-09-09T22:08:25.033Z,1.00
2022-09-09T22:10:29.141Z,1.05
2022-09-09T22:12:32.633Z,1.17
2022-09-09T22:14:36.141Z,1.30
2022-09-09T22:16:39.788Z,1.23
2022-09-09T22:18:42.727Z,1.25
2022-09-09T22:20:47.524Z,1.15
2022-09-09T22:22:50.254Z,1.33
2022-09-09T22:24:53.001Z,1.20
2022-09-09T22:26:57.062Z,1.33
2022-09-09T22:29:00.380Z,1.40
2022-09-09T22:31:03.533Z,1.70
2022-09-09T22:33:06.835Z,1.10
2022-09-09T22:35:10.337Z,1.23
2022-09-09T22:37:13.241Z,1.27
2022-09-09T22:39:15.994Z,1.15
2022-09-09T22:41:19.830Z,1.10
2022-09-09T22:43:24.088Z,1.23
2022-09-09T22:45:27.230Z,1.40
2022-09-09T22:47:29.958Z,1.30
2022-09-09T22:49:33.641Z,1.40
2022-09-09T22:51:36.318Z,1.45
2022-09-09T22:53:40.649Z,1.70
2022-09-09T22:55:43.908Z,1.55
2022-09-09T22:57:46.833Z,1.60
2022-09-09T22:59:51.011Z,1.38
2022-09-09T23:01:53.836Z,1.80
2022-09-09T23:03:58.921Z,1.67
2022-09-09T23:06:04.117Z,1.58
2022-09-09T23:08:07.104Z,1.60
2022-09-09T23:10:11.139Z,1.33
2022-09-09T23:12:14.719Z,1.58
2022-09-09T23:14:17.805Z,1.50
2022-09-09T23:16:23.949Z,1.60
2022-09-09T23:18:26.726Z,1.80
2022-09-09T23:20:29.740Z,1.50
2022-09-09T23:22:34.197Z,1.65
2022-09-09T23:24:37.387Z,1.70
2022-09-09T23:26:40.480Z,1.98
2022-09-09T23:28:43.584Z,1.50
2022-09-09T23:30:46.327Z,2.00
2022-09-09T23:32:51.099Z,2.20
2022-09-09T23:34:54.597Z,2.10
2022-09-09T23:36:57.467Z,2.47
2022-09-09T23:39:02.653Z,2.42
2022-09-09T23:41:07.630Z,2.92
2022-09-09T23:43:10.355Z,2.70
2022-09-09T23:45:13.040Z,2.83
2022-09-09T23:47:15.699Z,3.20
2022-09-09T23:49:19.792Z,2.90
2022-09-09T23:51:23.949Z,3.20
2022-09-09T23:53:27.245Z,3.53
2022-09-09T23:55:30.404Z,3.63
2022-09-09T23:57:33.137Z,4.00
2022-09-09T23:59:35.972Z,4.55
